Time;durP1;ratioP1;P1;durP2;ratioP2;P2;SDS_P1;SDS_P2;PMS_P1;PMS_P2;Temp;Humidity;BMP_temperature;BMP_pressure;BME280_temperature;BME280_humidity;BME280_pressure;Samples;Min_cycle;Max_cycle;Signal;HPM_P1;HPM_P2
2023/02/19 00:01:42;;;;;;;35.60;17.15;;;10.10;99.90;;;;;;4655237;30;20188;-78
2023/02/19 00:04:18;;;;;;;33.53;15.85;;;10.10;99.90;;;;;;4654973;30;20649;-81
2023/02/19 00:06:45;;;;;;;34.20;15.57;;;10.10;99.90;;;;;;4638095;30;21261;-78
2023/02/19 00:09:13;;;;;;;34.53;16.90;;;10.00;99.90;;;;;;4650821;30;20280;-78
2023/02/19 00:11:40;;;;;;;34.67;15.88;;;10.00;99.90;;;;;;4653902;30;20237;-76
2023/02/19 00:14:07;;;;;;;29.73;16.52;;;10.10;99.90;;;;;;4653882;30;20224;-81
2023/02/19 00:16:37;;;;;;;36.78;15.23;;;10.10;99.90;;;;;;4655719;30;20248;-78
2023/02/19 00:19:05;;;;;;;28.90;15.60;;;10.10;99.90;;;;;;4636385;30;20695;-78
2023/02/19 00:21:32;;;;;;;27.25;14.95;;;10.00;99.90;;;;;;4651437;30;20240;-80
2023/02/19 00:24:03;;;;;;;34.25;15.15;;;10.10;99.90;;;;;;4653917;30;20205;-81
2023/02/19 00:26:29;;;;;;;31.58;15.55;;;10.00;99.90;;;;;;4654204;30;20201;-78
2023/02/19 00:28:56;;;;;;;33.08;14.43;;;10.00;99.90;;;;;;4638634;30;20201;-79
2023/02/19 00:31:33;;;;;;;32.95;15.43;;;10.00;99.90;;;;;;4650511;30;20746;-78
2023/02/19 00:34:04;;;;;;;27.55;14.20;;;10.00;99.90;;;;;;4654029;30;20228;-81
2023/02/19 00:36:31;;;;;;;27.35;14.57;;;10.00;99.90;;;;;;4654625;30;20305;-80
2023/02/19 00:38:57;;;;;;;28.08;14.57;;;10.00;99.90;;;;;;4654298;30;20225;-78
2023/02/19 00:41:23;;;;;;;33.20;15.20;;;10.00;99.90;;;;;;4652231;30;20281;-78
2023/02/19 00:44:01;;;;;;;33.55;16.50;;;10.00;99.90;;;;;;4644323;30;20396;-81
2023/02/19 00:46:30;;;;;;;30.08;15.35;;;10.00;99.90;;;;;;4647123;30;20204;-77
2023/02/19 00:48:56;;;;;;;35.22;15.55;;;10.00;99.90;;;;;;4641561;30;20201;-79
2023/02/19 00:51:28;;;;;;;35.13;15.35;;;10.00;99.90;;;;;;4655149;30;20218;-77
2023/02/19 00:53:54;;;;;;;29.23;15.48;;;10.00;99.90;;;;;;4653952;30;20197;-80
2023/02/19 00:56:20;;;;;;;41.05;15.98;;;10.00;99.90;;;;;;4654622;30;20582;-77
2023/02/19 00:58:46;;;;;;;31.13;15.25;;;10.00;99.90;;;;;;4638611;30;20276;-80
2023/02/19 01:01:13;;;;;;;34.78;15.02;;;10.00;99.90;;;;;;4638130;30;20244;-79
2023/02/19 01:03:39;;;;;;;33.83;15.85;;;10.00;99.90;;;;;;4627323;30;20714;-81
2023/02/19 01:06:07;;;;;;;32.67;14.55;;;10.00;99.90;;;;;;4653579;30;20211;-79
2023/02/19 01:08:33;;;;;;;32.55;15.15;;;10.00;99.90;;;;;;4620862;30;20197;-78
2023/02/19 01:11:01;;;;;;;33.42;15.05;;;10.00;99.90;;;;;;4649866;30;20214;-81
2023/02/19 01:13:27;;;;;;;29.63;14.95;;;10.00;99.90;;;;;;4650624;30;20238;-81
2023/02/19 01:16:01;;;;;;;35.90;15.07;;;10.00;99.90;;;;;;4652465;30;20233;-77
2023/02/19 01:18:27;;;;;;;30.92;14.43;;;10.00;99.90;;;;;;4653398;30;20217;-77
2023/02/19 01:20:53;;;;;;;33.70;15.23;;;10.00;99.90;;;;;;4629955;30;20391;-76
2023/02/19 01:23:19;;;;;;;30.88;13.60;;;10.00;99.90;;;;;;4650901;30;20272;-77
2023/02/19 01:25:44;;;;;;;31.23;14.18;;;10.00;99.90;;;;;;4638802;30;20274;-78
2023/02/19 01:28:10;;;;;;;29.73;14.55;;;10.00;99.90;;;;;;4644511;30;20215;-80
2023/02/19 01:30:37;;;;;;;35.67;14.93;;;10.00;99.90;;;;;;4640561;30;20225;-77
2023/02/19 01:33:05;;;;;;;32.17;14.65;;;10.00;99.90;;;;;;4653901;30;20850;-77
2023/02/19 01:35:30;;;;;;;11.23;6.72;;;9.90;99.90;;;;;;4649028;30;20242;-78
2023/02/19 01:37:56;;;;;;;7.78;4.28;;;9.90;99.90;;;;;;4654324;30;20201;-80
2023/02/19 01:40:23;;;;;;;8.00;4.15;;;9.70;99.90;;;;;;4644897;30;20632;-77
2023/02/19 01:42:48;;;;;;;7.45;3.70;;;9.50;99.90;;;;;;4651307;30;20197;-77
2023/02/19 01:45:37;;;;;;;6.03;3.50;;;9.40;99.90;;;;;;4650987;30;20205;-81
2023/02/19 01:48:11;;;;;;;3.80;2.90;;;9.20;99.90;;;;;;4653468;30;20208;-78
2023/02/19 01:50:44;;;;;;;3.67;3.00;;;9.10;99.90;;;;;;4638116;30;20203;-79
2023/02/19 01:53:13;;;;;;;3.85;3.00;;;9.00;99.90;;;;;;4652039;30;20216;-77
2023/02/19 01:55:39;;;;;;;5.13;3.00;;;8.90;99.90;;;;;;4629447;30;20243;-77
2023/02/19 01:58:07;;;;;;;3.78;2.72;;;8.80;99.90;;;;;;4637713;30;20201;-80
2023/02/19 02:00:36;;;;;;;2.83;2.30;;;8.80;99.90;;;;;;4642316;30;20216;-78
2023/02/19 02:03:03;;;;;;;3.25;2.25;;;8.70;99.90;;;;;;4649784;30;20210;-76
2023/02/19 02:05:45;;;;;;;2.90;2.13;;;8.60;99.90;;;;;;4649545;30;20197;-79
2023/02/19 02:10:57;;;;;;;2.67;1.58;;;8.40;99.90;;;;;;4628822;30;20205;-77
2023/02/19 02:13:23;;;;;;;3.25;1.67;;;8.40;99.90;;;;;;4626545;30;20726;-77
2023/02/19 02:16:13;;;;;;;1.60;1.50;;;8.30;99.90;;;;;;4635789;30;20229;-80
2023/02/19 02:18:50;;;;;;;2.03;1.80;;;8.30;99.90;;;;;;4629878;30;20193;-78
2023/02/19 02:21:53;;;;;;;4.63;2.20;;;8.20;99.90;;;;;;4646999;30;20240;-78
2023/02/19 02:24:56;;;;;;;2.83;2.20;;;8.20;99.90;;;;;;4627014;30;20272;-80
2023/02/19 02:27:28;;;;;;;2.30;2.10;;;8.20;99.90;;;;;;4645939;30;20205;-79
2023/02/19 02:30:18;;;;;;;2.78;2.10;;;8.20;99.90;;;;;;4646980;30;20325;-79
2023/02/19 02:33:09;;;;;;;2.50;2.30;;;8.10;99.90;;;;;;4627553;30;20200;-81
2023/02/19 02:35:58;;;;;;;2.97;2.42;;;8.10;99.90;;;;;;4634820;30;20225;-80
2023/02/19 02:38:30;;;;;;;3.75;2.78;;;8.10;99.90;;;;;;4625355;30;21121;-81
2023/02/19 02:40:57;;;;;;;2.55;2.35;;;8.10;99.90;;;;;;4627623;30;20599;-81
2023/02/19 02:43:24;;;;;;;4.93;2.67;;;8.10;99.90;;;;;;4644105;30;20206;-77
2023/02/19 02:45:50;;;;;;;5.97;3.10;;;8.10;99.90;;;;;;4636196;30;20198;-76
2023/02/19 02:48:28;;;;;;;5.00;3.42;;;8.00;99.90;;;;;;4636121;30;20202;-78
2023/02/19 02:51:22;;;;;;;4.57;3.35;;;8.00;99.90;;;;;;4642899;30;20201;-80
2023/02/19 02:56:40;;;;;;;4.72;3.70;;;8.00;99.90;;;;;;4628769;30;20848;-77
2023/02/19 02:59:09;;;;;;;5.47;4.00;;;8.00;99.90;;;;;;4634564;30;20240;-79
2023/02/19 03:07:50;;;;;;;7.72;4.93;;;8.00;99.90;;;;;;4647375;30;20239;-77
2023/02/19 03:10:21;;;;;;;6.70;4.30;;;8.00;99.90;;;;;;4636868;30;20196;-79
2023/02/19 03:21:20;;;;;;;4.05;3.08;;;7.90;99.90;;;;;;4652043;30;20251;-79
2023/02/19 03:26:33;;;;;;;4.60;2.47;;;7.80;99.90;;;;;;4633654;30;20213;-80
2023/02/19 03:31:50;;;;;;;2.30;1.90;;;7.80;99.90;;;;;;4634677;30;20202;-78
2023/02/19 03:34:22;;;;;;;3.75;2.05;;;7.80;99.90;;;;;;4651547;30;20239;-77
2023/02/19 03:36:54;;;;;;;3.72;2.25;;;7.70;99.90;;;;;;4630369;30;20205;-77
2023/02/19 03:39:22;;;;;;;2.53;2.30;;;7.80;99.90;;;;;;4639877;30;20718;-78
2023/02/19 03:41:55;;;;;;;3.80;2.33;;;7.80;99.90;;;;;;4649658;30;20208;-77
2023/02/19 03:44:29;;;;;;;3.55;2.30;;;7.80;99.90;;;;;;4628812;30;20202;-78
2023/02/19 03:47:06;;;;;;;4.13;2.67;;;7.70;99.90;;;;;;4640381;30;20231;-78
2023/02/19 03:50:08;;;;;;;3.28;2.75;;;7.70;99.90;;;;;;4632621;30;20193;-78
2023/02/19 03:52:40;;;;;;;3.40;2.88;;;7.70;99.90;;;;;;4643069;30;20237;-76
2023/02/19 03:55:16;;;;;;;3.60;2.92;;;7.70;99.90;;;;;;4628768;30;20347;-78
2023/02/19 03:57:50;;;;;;;3.67;2.90;;;7.70;99.90;;;;;;4636410;30;20215;-79
2023/02/19 04:00:39;;;;;;;3.60;2.53;;;7.70;99.90;;;;;;4638813;30;20584;-77
2023/02/19 04:03:26;;;;;;;4.70;3.30;;;7.60;99.90;;;;;;4621909;30;20217;-75
2023/02/19 04:06:00;;;;;;;5.40;3.30;;;7.60;99.90;;;;;;4638372;30;20691;-78
2023/02/19 04:08:27;;;;;;;4.38;3.10;;;7.60;99.90;;;;;;4645802;30;20250;-75
2023/02/19 04:11:00;;;;;;;4.57;3.22;;;7.60;99.90;;;;;;4632833;30;20249;-75
2023/02/19 04:13:51;;;;;;;3.45;2.90;;;7.60;99.90;;;;;;4643036;30;20579;-76
2023/02/19 04:16:21;;;;;;;4.38;3.05;;;7.50;99.90;;;;;;4654502;30;20675;-76
2023/02/19 04:18:51;;;;;;;3.55;3.00;;;7.50;99.90;;;;;;4655214;30;20217;-77
2023/02/19 04:21:19;;;;;;;5.50;3.30;;;7.50;99.90;;;;;;4655660;30;20279;-77
2023/02/19 04:23:46;;;;;;;4.80;3.70;;;7.50;99.90;;;;;;4631608;30;20193;-79
2023/02/19 04:26:14;;;;;;;6.35;4.15;;;7.50;99.90;;;;;;4628899;30;20594;-80
2023/02/19 04:28:41;;;;;;;6.35;4.25;;;7.40;99.90;;;;;;4651874;30;20206;-76
2023/02/19 04:31:07;;;;;;;4.60;3.50;;;7.40;99.90;;;;;;4648497;30;20228;-78
2023/02/19 04:33:33;;;;;;;5.13;3.28;;;7.40;99.90;;;;;;4656173;30;20778;-78
2023/02/19 04:35:59;;;;;;;4.60;3.50;;;7.40;99.90;;;;;;4653117;30;20236;-80
2023/02/19 04:38:25;;;;;;;5.35;3.63;;;7.40;99.90;;;;;;4629002;30;20193;-77
2023/02/19 04:40:51;;;;;;;5.07;3.70;;;7.40;99.90;;;;;;4651066;30;20662;-76
2023/02/19 04:43:17;;;;;;;4.93;3.22;;;7.40;99.90;;;;;;4653050;30;20203;-78
2023/02/19 04:45:43;;;;;;;6.03;3.53;;;7.30;99.90;;;;;;4655489;30;20252;-78
2023/02/19 04:48:09;;;;;;;6.00;3.53;;;7.30;99.90;;;;;;4654423;30;22292;-81
2023/02/19 04:50:37;;;;;;;5.72;3.55;;;7.30;99.90;;;;;;4650139;30;20197;-78
2023/02/19 04:53:03;;;;;;;6.30;4.20;;;7.30;99.90;;;;;;4652964;30;20206;-79
2023/02/19 04:55:29;;;;;;;5.85;3.65;;;7.30;99.90;;;;;;4653778;30;20268;-76
2023/02/19 04:57:55;;;;;;;6.85;4.28;;;7.20;99.90;;;;;;4652096;30;20228;-78
2023/02/19 05:00:21;;;;;;;5.13;3.67;;;7.20;99.90;;;;;;4652725;30;20237;-76
2023/02/19 05:02:46;;;;;;;4.70;3.40;;;7.20;99.90;;;;;;4653200;30;20387;-76
2023/02/19 05:05:12;;;;;;;5.03;3.47;;;7.20;99.90;;;;;;4640167;30;20212;-76
2023/02/19 05:07:38;;;;;;;5.32;3.47;;;7.10;99.90;;;;;;4639888;30;20555;-76
2023/02/19 05:10:04;;;;;;;4.45;3.30;;;7.10;99.90;;;;;;4651418;30;20210;-75
2023/02/19 05:12:30;;;;;;;5.18;2.97;;;7.10;99.90;;;;;;4652301;30;20249;-79
2023/02/19 05:14:56;;;;;;;3.00;2.70;;;7.10;99.90;;;;;;4652745;30;20237;-78
2023/02/19 05:17:22;;;;;;;5.88;2.72;;;7.10;99.90;;;;;;4654400;30;20738;-78
2023/02/19 05:19:47;;;;;;;4.35;3.05;;;7.10;99.90;;;;;;4649973;30;20197;-76
2023/02/19 05:22:13;;;;;;;4.88;3.25;;;7.00;99.90;;;;;;4652938;30;21236;-75
2023/02/19 05:24:39;;;;;;;4.75;2.65;;;7.00;99.90;;;;;;4653461;30;22155;-75
2023/02/19 05:27:05;;;;;;;3.40;2.90;;;6.90;99.90;;;;;;4654098;30;20230;-78
2023/02/19 05:29:31;;;;;;;5.63;3.30;;;6.90;99.90;;;;;;4652853;30;20559;-77
2023/02/19 05:31:57;;;;;;;8.27;3.13;;;7.00;99.90;;;;;;4650392;30;20203;-76
2023/02/19 05:34:22;;;;;;;5.88;2.97;;;6.90;99.90;;;;;;4651650;30;20216;-78
2023/02/19 05:36:48;;;;;;;3.38;2.50;;;7.00;99.90;;;;;;4653634;30;20579;-77
2023/02/19 05:39:14;;;;;;;3.25;2.38;;;6.90;99.90;;;;;;4651412;30;20212;-78
2023/02/19 05:41:40;;;;;;;3.67;2.00;;;6.90;99.90;;;;;;4650554;30;20292;-76
2023/02/19 05:44:06;;;;;;;3.83;2.20;;;6.90;99.90;;;;;;4649295;30;20197;-79
2023/02/19 05:46:31;;;;;;;2.58;1.40;;;6.90;99.90;;;;;;4651651;30;20199;-76
2023/02/19 05:48:57;;;;;;;3.92;1.52;;;6.80;99.90;;;;;;4651958;30;20216;-78
2023/02/19 05:51:25;;;;;;;2.28;1.35;;;6.80;99.90;;;;;;4653183;30;20936;-75
2023/02/19 05:53:51;;;;;;;2.85;1.00;;;6.90;99.90;;;;;;4650271;30;20361;-76
2023/02/19 05:56:26;;;;;;;1.23;1.00;;;6.80;99.90;;;;;;4633981;30;20209;-81
2023/02/19 05:58:52;;;;;;;1.80;1.20;;;6.70;99.90;;;;;;4652636;30;20196;-79
2023/02/19 06:01:21;;;;;;;2.85;0.90;;;6.80;99.90;;;;;;4651231;30;20670;-82
2023/02/19 06:03:46;;;;;;;3.10;0.90;;;6.70;99.90;;;;;;4653165;30;20198;-78
2023/02/19 06:06:14;;;;;;;4.57;1.20;;;6.80;99.90;;;;;;4652302;30;20612;-79
2023/02/19 06:08:40;;;;;;;4.45;1.00;;;6.70;99.90;;;;;;4651954;30;20202;-78
2023/02/19 06:11:05;;;;;;;2.78;1.00;;;6.70;99.90;;;;;;4627751;30;20205;-77
2023/02/19 06:13:31;;;;;;;2.75;1.27;;;6.80;99.90;;;;;;4626343;30;21220;-80
2023/02/19 06:15:57;;;;;;;6.50;1.42;;;6.70;99.90;;;;;;4636752;30;21563;-78
2023/02/19 06:18:23;;;;;;;3.13;1.35;;;6.70;99.90;;;;;;4653004;30;20209;-77
2023/02/19 06:20:48;;;;;;;5.90;1.33;;;6.70;99.90;;;;;;4652514;30;20212;-77
2023/02/19 06:23:14;;;;;;;2.75;1.08;;;6.70;99.90;;;;;;4651918;30;20632;-78
2023/02/19 06:25:40;;;;;;;2.58;1.30;;;6.70;99.90;;;;;;4653003;30;20879;-81
2023/02/19 06:28:08;;;;;;;5.78;1.30;;;6.60;99.90;;;;;;4649028;30;20280;-77
2023/02/19 06:30:35;;;;;;;4.30;1.20;;;6.60;99.90;;;;;;4649518;30;20291;-80
2023/02/19 06:33:00;;;;;;;3.65;1.42;;;6.60;99.90;;;;;;4634027;30;20293;-77
2023/02/19 06:35:26;;;;;;;5.80;1.58;;;6.60;99.90;;;;;;4649939;30;20721;-78
2023/02/19 06:37:52;;;;;;;4.60;1.40;;;6.60;99.90;;;;;;4651907;30;20211;-78
2023/02/19 06:40:18;;;;;;;4.20;1.40;;;6.60;99.90;;;;;;4629377;30;20213;-77
2023/02/19 06:42:44;;;;;;;5.15;1.60;;;6.60;99.90;;;;;;4648677;30;20200;-81
2023/02/19 06:45:09;;;;;;;4.13;1.70;;;6.60;99.90;;;;;;4650635;30;20240;-77
2023/02/19 06:47:35;;;;;;;4.50;1.70;;;6.60;99.90;;;;;;4654909;30;20730;-79
2023/02/19 06:50:01;;;;;;;5.65;1.77;;;6.60;99.90;;;;;;4651229;30;20219;-80
2023/02/19 06:52:27;;;;;;;3.47;1.63;;;6.60;99.90;;;;;;4650601;30;20695;-76
2023/02/19 06:54:53;;;;;;;5.25;1.95;;;6.50;99.90;;;;;;4633965;30;20233;-78
2023/02/19 06:57:18;;;;;;;4.38;2.10;;;6.50;99.90;;;;;;4640263;30;22219;-78
2023/02/19 06:59:47;;;;;;;5.57;1.95;;;6.50;99.90;;;;;;4652751;30;20576;-75
2023/02/19 07:02:13;;;;;;;10.95;2.10;;;6.50;99.90;;;;;;4631060;30;20352;-75
2023/02/19 07:04:39;;;;;;;4.90;2.17;;;6.50;99.90;;;;;;4654211;30;20205;-75
2023/02/19 07:07:04;;;;;;;3.05;1.70;;;6.50;99.90;;;;;;4653842;30;20204;-79
2023/02/19 07:09:31;;;;;;;8.38;1.90;;;6.50;99.90;;;;;;4655184;30;20201;-77
2023/02/19 07:11:57;;;;;;;4.78;2.03;;;6.50;99.90;;;;;;4654472;30;20251;-79
2023/02/19 07:14:23;;;;;;;5.47;1.80;;;6.50;99.90;;;;;;4652182;30;20233;-76
2023/02/19 07:16:49;;;;;;;6.18;2.00;;;6.50;99.90;;;;;;4640438;30;20267;-81
2023/02/19 07:19:15;;;;;;;5.88;1.80;;;6.60;99.90;;;;;;4655063;30;20201;-76
2023/02/19 07:21:41;;;;;;;4.90;2.20;;;6.60;99.90;;;;;;4656454;30;20204;-78
2023/02/19 07:24:08;;;;;;;7.20;2.20;;;6.60;99.90;;;;;;4653304;30;20201;-79
2023/02/19 07:26:34;;;;;;;6.97;2.17;;;6.60;99.90;;;;;;4654553;30;20928;-80
2023/02/19 07:29:00;;;;;;;7.20;2.22;;;6.60;99.90;;;;;;4654849;30;20710;-77
2023/02/19 07:31:27;;;;;;;5.32;2.10;;;6.60;99.90;;;;;;4651947;30;20205;-77
2023/02/19 07:33:53;;;;;;;4.57;1.73;;;6.60;99.90;;;;;;4652292;30;20226;-80
2023/02/19 07:36:21;;;;;;;5.53;2.10;;;6.60;99.90;;;;;;4640706;30;20245;-79
2023/02/19 07:38:51;;;;;;;6.85;2.38;;;6.70;99.90;;;;;;4654480;30;20198;-77
2023/02/19 07:41:17;;;;;;;7.65;2.08;;;6.70;99.90;;;;;;4651491;30;20206;-77
2023/02/19 07:43:42;;;;;;;10.45;2.00;;;6.80;99.90;;;;;;4616481;30;20203;-79
2023/02/19 07:46:11;;;;;;;4.15;1.85;;;6.90;99.90;;;;;;4642063;30;20606;-77
2023/02/19 07:48:38;;;;;;;6.53;1.92;;;6.90;99.90;;;;;;4657874;30;20734;-77
2023/02/19 07:51:05;;;;;;;3.75;1.83;;;7.10;99.90;;;;;;4654824;30;20217;-78
2023/02/19 07:53:32;;;;;;;6.90;2.58;;;7.40;99.90;;;;;;4655096;30;20220;-80
2023/02/19 07:56:00;;;;;;;3.05;1.98;;;7.70;99.90;;;;;;4655527;30;20703;-78
2023/02/19 07:58:27;;;;;;;6.32;2.00;;;8.20;99.90;;;;;;4655611;30;20202;-79
2023/02/19 08:00:53;;;;;;;4.90;1.77;;;8.60;99.90;;;;;;4645671;30;20221;-78
2023/02/19 08:03:18;;;;;;;3.85;1.40;;;9.00;99.90;;;;;;4640412;30;20346;-81
2023/02/19 08:05:44;;;;;;;3.92;1.50;;;9.40;99.90;;;;;;4654863;30;20608;-80
2023/02/19 08:08:12;;;;;;;3.55;1.50;;;9.70;99.90;;;;;;4655402;30;20205;-80
2023/02/19 08:13:24;;;;;;;2.28;1.30;;;10.10;99.90;;;;;;4641716;30;20255;-76
2023/02/19 08:16:12;;;;;;;4.00;1.50;;;10.30;99.90;;;;;;4652749;30;20300;-76
2023/02/19 08:18:38;;;;;;;3.33;1.20;;;10.40;99.90;;;;;;4654729;30;20285;-81
2023/02/19 08:21:04;;;;;;;4.30;1.25;;;10.50;99.90;;;;;;4624001;30;20206;-78
2023/02/19 08:23:29;;;;;;;4.70;1.35;;;10.60;99.90;;;;;;4654121;30;20298;-76
2023/02/19 08:25:59;;;;;;;3.60;1.00;;;10.80;99.90;;;;;;4636471;30;20208;-83
2023/02/19 08:28:25;;;;;;;2.88;1.20;;;10.90;99.90;;;;;;4637710;30;20707;-78
2023/02/19 08:30:51;;;;;;;3.33;1.05;;;11.10;99.90;;;;;;4654439;30;20663;-75
2023/02/19 08:33:20;;;;;;;6.75;0.90;;;11.30;99.90;;;;;;4653838;30;20217;-78
2023/02/19 08:35:46;;;;;;;2.72;0.82;;;11.50;99.90;;;;;;4650105;30;20241;-76
2023/02/19 08:38:15;;;;;;;3.35;1.15;;;11.70;99.90;;;;;;4639219;30;20728;-81
2023/02/19 08:40:41;;;;;;;2.88;0.85;;;11.90;99.90;;;;;;4653534;30;20933;-79
2023/02/19 08:43:13;;;;;;;3.42;1.33;;;12.20;99.90;;;;;;4653368;30;20198;-77
2023/02/19 08:45:41;;;;;;;2.47;1.30;;;12.40;99.90;;;;;;4652101;30;20205;-76
2023/02/19 08:48:08;;;;;;;3.15;1.10;;;12.50;99.90;;;;;;4654988;30;20200;-76
2023/02/19 08:50:34;;;;;;;2.65;1.10;;;12.80;99.90;;;;;;4653428;30;20206;-78
2023/02/19 08:53:01;;;;;;;4.68;1.10;;;13.00;99.90;;;;;;4654097;30;20228;-79
2023/02/19 08:55:27;;;;;;;4.72;1.20;;;13.30;99.90;;;;;;4653738;30;21473;-80
2023/02/19 08:57:53;;;;;;;5.85;1.63;;;13.60;99.90;;;;;;4652802;30;20205;-76
2023/02/19 09:00:20;;;;;;;4.88;1.67;;;13.80;99.90;;;;;;4653715;30;20197;-74
2023/02/19 09:02:46;;;;;;;3.08;1.48;;;13.90;99.90;;;;;;4630807;30;20240;-77
2023/02/19 09:05:12;;;;;;;5.13;1.20;;;14.00;99.90;;;;;;4648481;30;20202;-75
2023/02/19 09:07:39;;;;;;;3.10;1.00;;;14.10;99.90;;;;;;4639216;30;20209;-79
2023/02/19 09:10:05;;;;;;;4.05;1.00;;;14.20;99.90;;;;;;4650016;30;20296;-77
2023/02/19 09:12:32;;;;;;;3.40;1.30;;;14.20;99.90;;;;;;4650871;30;20202;-76
2023/02/19 09:14:59;;;;;;;5.15;1.00;;;14.40;99.90;;;;;;4653494;30;20316;-76
2023/02/19 09:17:25;;;;;;;3.45;1.20;;;14.40;99.90;;;;;;4653207;30;20405;-77
2023/02/19 09:19:50;;;;;;;2.70;0.80;;;14.30;99.90;;;;;;4630099;30;20293;-75
2023/02/19 09:22:16;;;;;;;4.95;1.10;;;14.40;99.90;;;;;;4640421;30;20948;-80
2023/02/19 09:24:42;;;;;;;4.35;1.10;;;14.50;99.90;;;;;;4653485;30;20202;-78
2023/02/19 09:27:13;;;;;;;4.28;1.20;;;14.70;99.90;;;;;;4653722;30;20251;-76
2023/02/19 09:29:39;;;;;;;10.60;1.60;;;14.70;99.90;;;;;;4653210;30;20198;-79
2023/02/19 09:32:04;;;;;;;5.97;1.50;;;14.40;99.90;;;;;;4650114;30;20201;-75
2023/02/19 09:34:30;;;;;;;7.88;1.30;;;14.10;99.90;;;;;;4654529;30;20336;-77
2023/02/19 09:36:56;;;;;;;5.43;1.20;;;13.70;99.90;;;;;;4652676;30;20200;-78
2023/02/19 09:39:22;;;;;;;6.60;1.48;;;13.20;99.90;;;;;;4652492;30;20311;-79
2023/02/19 09:41:51;;;;;;;3.17;1.50;;;12.90;99.90;;;;;;4652256;30;20660;-74
2023/02/19 09:44:26;;;;;;;3.60;1.30;;;12.60;99.90;;;;;;4653778;30;20193;-77
2023/02/19 09:46:52;;;;;;;4.32;1.30;;;12.50;99.90;;;;;;4653144;30;20284;-75
2023/02/19 09:49:29;;;;;;;4.38;1.38;;;12.40;99.90;;;;;;4652156;30;20758;-78
2023/02/19 09:52:06;;;;;;;3.00;1.33;;;12.20;99.90;;;;;;4654523;30;20214;-74
2023/02/19 09:54:33;;;;;;;3.83;1.85;;;12.00;99.90;;;;;;4653637;30;20213;-77
2023/02/19 09:57:01;;;;;;;6.72;1.60;;;11.80;99.90;;;;;;4653846;30;20275;-75
2023/02/19 09:59:36;;;;;;;6.07;1.73;;;11.60;99.90;;;;;;4651596;30;20743;-75
2023/02/19 10:02:10;;;;;;;7.22;1.60;;;11.60;99.90;;;;;;4641211;30;20205;-81
2023/02/19 10:04:40;;;;;;;3.65;1.33;;;11.70;99.90;;;;;;4641098;30;20202;-77
2023/02/19 10:07:17;;;;;;;4.10;1.38;;;12.00;99.90;;;;;;4655720;30;20200;-75
2023/02/19 10:10:17;;;;;;;4.57;1.50;;;12.40;99.90;;;;;;4655278;30;20217;-79
2023/02/19 10:12:51;;;;;;;3.00;1.17;;;13.00;99.90;;;;;;4657988;30;20452;-82
2023/02/19 10:15:45;;;;;;;5.47;1.17;;;13.60;99.90;;;;;;4652870;30;20302;-78
2023/02/19 10:18:10;;;;;;;4.05;1.35;;;14.00;99.90;;;;;;4653393;30;20192;-81
2023/02/19 10:20:36;;;;;;;2.92;1.10;;;14.40;99.90;;;;;;4635604;30;20197;-78
2023/02/19 10:23:05;;;;;;;4.95;1.20;;;14.40;99.90;;;;;;4652030;30;20249;-81
2023/02/19 10:25:32;;;;;;;6.45;1.40;;;14.20;99.90;;;;;;4628943;30;20545;-79
2023/02/19 10:27:59;;;;;;;5.00;1.40;;;14.00;99.90;;;;;;4637618;30;20292;-78
2023/02/19 10:30:33;;;;;;;4.13;1.30;;;13.60;99.90;;;;;;4650857;30;20193;-83
2023/02/19 10:33:11;;;;;;;4.30;1.40;;;13.20;99.90;;;;;;4650066;30;20245;-81
2023/02/19 10:35:54;;;;;;;5.63;1.23;;;12.90;99.90;;;;;;4652941;30;20208;-75
2023/02/19 10:38:29;;;;;;;5.13;1.80;;;12.50;99.90;;;;;;4652283;30;20252;-77
2023/02/19 10:40:59;;;;;;;7.45;1.13;;;12.20;99.90;;;;;;4649251;30;20328;-82
2023/02/19 10:43:35;;;;;;;3.67;1.13;;;11.90;99.90;;;;;;4629120;30;20297;-80
2023/02/19 10:46:14;;;;;;;6.72;1.33;;;11.70;99.90;;;;;;4642765;30;20189;-80
2023/02/19 10:48:50;;;;;;;2.97;1.30;;;11.50;99.90;;;;;;4655423;30;20204;-82
2023/02/19 10:51:21;;;;;;;4.13;1.20;;;11.30;99.90;;;;;;4633739;30;20189;-84
2023/02/19 10:54:03;;;;;;;6.00;1.38;;;11.20;99.90;;;;;;4653859;30;20201;-78
2023/02/19 10:56:30;;;;;;;4.07;1.23;;;11.10;99.90;;;;;;4652109;30;20292;-78
2023/02/19 10:59:14;;;;;;;5.78;1.50;;;11.10;99.90;;;;;;4651823;30;20698;-75
2023/02/19 11:01:59;;;;;;;5.63;1.40;;;11.20;99.90;;;;;;4649840;30;20235;-79
2023/02/19 11:04:32;;;;;;;5.13;1.38;;;11.40;99.90;;;;;;4638705;30;20292;-74
2023/02/19 11:07:24;;;;;;;3.10;1.08;;;11.80;99.90;;;;;;4651971;30;20330;-75
2023/02/19 11:09:52;;;;;;;4.55;1.23;;;12.20;99.90;;;;;;4652374;30;20194;-78
2023/02/19 11:12:27;;;;;;;3.97;1.60;;;12.70;99.90;;;;;;4649905;30;20194;-76
2023/02/19 11:14:53;;;;;;;5.10;1.40;;;13.40;99.90;;;;;;4647698;30;21174;-79
2023/02/19 11:17:27;;;;;;;3.80;1.17;;;13.60;99.90;;;;;;4648671;30;20203;-80
2023/02/19 11:19:59;;;;;;;9.68;1.30;;;13.70;99.90;;;;;;4652937;30;20260;-76
2023/02/19 11:22:45;;;;;;;3.17;1.00;;;13.60;99.90;;;;;;4636125;30;20197;-80
2023/02/19 11:25:15;;;;;;;5.13;1.27;;;13.40;99.90;;;;;;4636140;30;20213;-75
2023/02/19 11:27:54;;;;;;;4.05;1.08;;;13.10;99.90;;;;;;4652486;30;20599;-78
2023/02/19 11:30:43;;;;;;;6.68;1.33;;;12.80;99.90;;;;;;4638022;30;20201;-75
2023/02/19 11:33:15;;;;;;;4.47;1.13;;;12.70;99.90;;;;;;4638473;30;20201;-78
2023/02/19 11:35:44;;;;;;;4.97;1.27;;;12.50;99.90;;;;;;4650836;30;20235;-80
2023/02/19 11:38:13;;;;;;;5.93;1.55;;;12.40;99.90;;;;;;4651291;30;20197;-77
2023/02/19 11:41:12;;;;;;;6.93;1.50;;;12.40;99.90;;;;;;4650856;30;20188;-76
2023/02/19 11:43:41;;;;;;;4.35;1.00;;;12.60;99.90;;;;;;4629165;30;20208;-77
2023/02/19 11:46:48;;;;;;;6.25;1.00;;;12.90;99.90;;;;;;4628109;30;20209;-76
2023/02/19 11:49:14;;;;;;;14.48;1.35;;;13.20;99.90;;;;;;4629827;30;20218;-78
2023/02/19 11:52:22;;;;;;;3.10;0.98;;;13.60;99.90;;;;;;4651346;30;20525;-77
2023/02/19 11:54:55;;;;;;;6.18;1.10;;;14.00;99.90;;;;;;4621488;30;20244;-81
2023/02/19 11:57:47;;;;;;;4.07;1.00;;;14.30;99.90;;;;;;4653398;30;20193;-75
2023/02/19 12:00:29;;;;;;;3.15;0.98;;;14.60;99.90;;;;;;4653992;30;21093;-77
2023/02/19 12:03:44;;;;;;;4.75;1.33;;;14.60;99.90;;;;;;4655226;30;20243;-74
2023/02/19 12:06:21;;;;;;;4.82;1.00;;;14.40;99.90;;;;;;4584762;30;20238;-77
2023/02/19 12:09:11;;;;;;;3.92;1.00;;;14.10;99.90;;;;;;4648777;30;20573;-75
2023/02/19 12:12:11;;;;;;;3.85;0.70;;;13.90;99.90;;;;;;4652615;30;20204;-79
2023/02/19 12:14:54;;;;;;;6.70;1.40;;;13.80;99.90;;;;;;4623673;30;20319;-74
2023/02/19 12:17:48;;;;;;;4.00;0.82;;;13.90;99.90;;;;;;4654596;30;20201;-74
2023/02/19 12:20:36;;;;;;;6.53;1.52;;;14.00;99.90;;;;;;4653301;30;20659;-77
2023/02/19 12:23:20;;;;;;;4.43;1.15;;;14.00;99.90;;;;;;4653565;30;22740;-77
2023/02/19 12:26:09;;;;;;;5.00;1.30;;;14.10;99.90;;;;;;4648632;30;21228;-78
2023/02/19 12:28:38;;;;;;;3.90;0.85;;;13.90;99.90;;;;;;4616219;30;20217;-74
2023/02/19 12:31:19;;;;;;;6.88;1.00;;;13.80;99.90;;;;;;4637385;30;20204;-78
2023/02/19 12:34:10;;;;;;;5.03;1.10;;;13.80;99.90;;;;;;4649251;30;20193;-76
2023/02/19 12:36:55;;;;;;;6.40;1.08;;;13.80;99.90;;;;;;4650026;30;21400;-76
2023/02/19 12:40:04;;;;;;;2.28;0.80;;;13.70;99.90;;;;;;4653626;30;20327;-75
2023/02/19 12:42:38;;;;;;;3.63;0.80;;;13.50;99.90;;;;;;4613840;30;20203;-80
2023/02/19 12:45:39;;;;;;;5.78;0.90;;;13.30;99.90;;;;;;4646227;30;20358;-75
2023/02/19 12:48:24;;;;;;;3.92;1.15;;;13.00;99.90;;;;;;4655919;30;20188;-74
2023/02/19 12:50:57;;;;;;;4.20;1.10;;;12.90;99.90;;;;;;4651621;30;20255;-78
2023/02/19 12:53:23;;;;;;;4.03;0.98;;;12.90;99.90;;;;;;4656063;30;20205;-77
2023/02/19 12:55:51;;;;;;;8.70;1.33;;;12.70;99.90;;;;;;4654742;30;20214;-74
2023/02/19 12:58:32;;;;;;;4.47;0.88;;;12.50;99.90;;;;;;4653578;30;20636;-81
2023/02/19 13:00:58;;;;;;;5.28;1.10;;;12.30;99.90;;;;;;4653808;30;20667;-80
2023/02/19 13:03:52;;;;;;;6.75;1.60;;;12.20;99.90;;;;;;4654171;30;20671;-79
2023/02/19 13:06:21;;;;;;;2.60;0.98;;;12.10;99.90;;;;;;4652647;30;20206;-74
2023/02/19 13:08:57;;;;;;;4.40;1.45;;;12.00;99.90;;;;;;4653972;30;20205;-74
2023/02/19 13:11:38;;;;;;;6.15;1.30;;;12.00;99.90;;;;;;4652520;30;20186;-78
2023/02/19 13:14:15;;;;;;;2.08;0.90;;;12.00;99.90;;;;;;4653543;30;20208;-78
2023/02/19 13:16:45;;;;;;;2.75;0.95;;;11.90;99.90;;;;;;4652416;30;20216;-76
2023/02/19 13:19:13;;;;;;;5.03;1.13;;;11.80;99.90;;;;;;4653475;30;20192;-76
2023/02/19 13:24:31;;;;;;;5.57;1.00;;;11.60;99.90;;;;;;4653051;30;20328;-80
2023/02/19 13:27:45;;;;;;;5.68;1.08;;;11.60;99.90;;;;;;4654573;30;20699;-80
2023/02/19 13:30:53;;;;;;;3.65;1.10;;;11.60;99.90;;;;;;4645227;30;20201;-74
2023/02/19 13:33:48;;;;;;;5.60;1.10;;;11.60;99.90;;;;;;4631555;30;20208;-78
2023/02/19 13:36:24;;;;;;;7.82;1.45;;;11.60;99.90;;;;;;4650894;30;20303;-77
2023/02/19 13:38:51;;;;;;;4.07;1.10;;;11.60;99.90;;;;;;4635233;30;20197;-76
2023/02/19 13:41:24;;;;;;;5.60;1.38;;;11.70;99.90;;;;;;4650852;30;20299;-80
2023/02/19 13:43:56;;;;;;;10.73;1.40;;;11.80;99.90;;;;;;4652805;30;20197;-75